Time;durP1;ratioP1;P1;durP2;ratioP2;P2;SDS_P1;SDS_P2;PMS_P1;PMS_P2;Temp;Humidity;BMP_temperature;BMP_pressure;BME280_temperature;BME280_humidity;BME280_pressure;Samples;Min_cycle;Max_cycle;Signal;HPM_P1;HPM_P2
2022/08/05 00:04:47;;;;;;;9.73;5.55;;;;;;;17.96;100.00;101357.38;6243169;23;20074;-91
2022/08/05 00:07:33;;;;;;;12.37;5.30;;;;;;;17.89;100.00;101335.28;6243106;22;20015;-94
2022/08/05 00:35:42;;;;;;;9.13;6.07;;;;;;;17.85;100.00;101345.09;6242914;23;20070;-92
2022/08/05 01:01:01;;;;;;;13.45;7.65;;;;;;;17.79;100.00;101340.84;6246502;23;20359;-93
2022/08/05 01:04:10;;;;;;;14.05;8.20;;;;;;;17.89;100.00;101351.53;6262251;23;19985;-93
2022/08/05 01:15:45;;;;;;;14.57;8.23;;;;;;;17.76;100.00;101363.09;6271091;23;20027;-93
2022/08/05 01:25:35;;;;;;;17.30;8.30;;;;;;;17.74;100.00;101416.78;6246125;23;20065;-93
2022/08/05 01:34:59;;;;;;;11.98;7.18;;;;;;;17.75;100.00;101437.38;6272548;23;20043;-92
2022/08/05 01:40:31;;;;;;;12.50;7.43;;;;;;;17.85;100.00;101432.63;6241290;22;20024;-93
2022/08/05 01:43:51;;;;;;;16.70;7.70;;;;;;;17.64;100.00;101418.56;6272003;22;20246;-92
2022/08/05 02:07:16;;;;;;;15.82;7.00;;;;;;;17.39;100.00;101376.34;6245953;22;20069;-93
2022/08/05 02:30:25;;;;;;;13.63;7.18;;;;;;;17.21;100.00;101380.63;6215500;23;20016;-92
2022/08/05 02:33:01;;;;;;;11.65;7.05;;;;;;;17.15;100.00;101392.63;6214345;23;20031;-93
2022/08/05 02:38:36;;;;;;;15.80;7.20;;;;;;;17.35;100.00;101418.66;6241352;22;20036;-94
2022/08/05 02:41:30;;;;;;;16.50;7.63;;;;;;;17.40;100.00;101416.69;6217795;23;20324;-93
2022/08/05 02:53:43;;;;;;;10.18;6.47;;;;;;;17.39;100.00;101403.44;6243630;23;20683;-94
2022/08/05 02:58:44;;;;;;;14.05;6.75;;;;;;;17.27;100.00;101376.75;6230607;22;20015;-94
2022/08/05 03:01:44;;;;;;;13.15;6.35;;;;;;;17.31;100.00;101383.22;6244375;23;20004;-95
2022/08/05 03:04:19;;;;;;;15.52;6.68;;;;;;;17.13;100.00;101362.31;6243618;23;20004;-93
2022/08/05 03:07:37;;;;;;;11.60;6.30;;;;;;;17.26;100.00;101373.22;6244179;22;20332;-94
2022/08/05 03:10:14;;;;;;;12.20;6.57;;;;;;;17.10;100.00;101364.50;6244280;23;20710;-93
2022/08/05 03:12:40;;;;;;;12.57;5.90;;;;;;;17.12;100.00;101363.41;6246421;23;20083;-93
2022/08/05 03:15:07;;;;;;;13.77;6.18;;;;;;;17.23;100.00;101375.72;6219017;22;20000;-94
2022/08/05 03:38:15;;;;;;;11.18;5.05;;;;;;;17.28;100.00;101418.19;6254396;22;20024;-94
2022/08/05 03:57:23;;;;;;;12.52;5.65;;;;;;;17.18;100.00;101403.66;6241977;22;20154;-93
2022/08/05 04:06:44;;;;;;;12.13;6.32;;;;;;;17.03;100.00;101380.28;6243323;22;20073;-93
2022/08/05 04:57:18;;;;;;;11.43;7.47;;;;;;;17.10;100.00;101418.66;6241010;22;20081;-92
2022/08/05 05:20:20;;;;;;;13.52;6.20;;;;;;;17.61;100.00;101432.69;6240202;22;20040;-93
2022/08/05 05:23:37;;;;;;;10.80;6.23;;;;;;;17.71;100.00;101437.94;6246004;23;20019;-92
2022/08/05 05:30:14;;;;;;;12.40;5.93;;;;;;;17.84;100.00;101435.63;6245170;23;20019;-94
2022/08/05 05:32:39;;;;;;;14.18;6.80;;;;;;;17.71;100.00;101418.19;6252742;23;20015;-92
2022/08/05 05:35:39;;;;;;;11.03;6.10;;;;;;;17.81;100.00;101436.22;6246217;22;20000;-93
2022/08/05 05:38:41;;;;;;;14.38;7.00;;;;;;;17.66;100.00;101435.31;6245283;23;20030;-93
2022/08/05 05:41:18;;;;;;;18.65;7.35;;;;;;;17.67;100.00;101442.38;6245719;23;20012;-93
2022/08/05 05:43:43;;;;;;;13.27;7.15;;;;;;;17.67;100.00;101446.97;6244640;23;20099;-93
2022/08/05 05:46:12;;;;;;;10.27;7.07;;;;;;;17.60;100.00;101441.91;6241406;22;20016;-94
2022/08/05 05:48:46;;;;;;;16.02;7.22;;;;;;;17.58;100.00;101443.31;6245176;23;20008;-92
2022/08/05 06:00:52;;;;;;;19.70;7.05;;;;;;;17.67;100.00;101474.88;6244724;23;20336;-93
2022/08/05 06:07:12;;;;;;;10.10;6.18;;;;;;;17.72;100.00;101474.00;6244487;22;20019;-93
2022/08/05 06:09:37;;;;;;;15.23;6.03;;;;;;;17.62;100.00;101461.38;6244665;23;20440;-94
2022/08/05 06:12:40;;;;;;;16.07;6.33;;;;;;;17.70;100.00;101477.03;6245057;23;20302;-93
2022/08/05 06:23:39;;;;;;;21.30;6.20;;;;;;;17.78;100.00;101470.16;6244641;23;20380;-93
2022/08/05 06:26:11;;;;;;;16.23;6.20;;;;;;;17.76;100.00;101471.50;6239804;22;20630;-94
2022/08/05 06:32:17;;;;;;;14.85;6.45;;;;;;;17.91;100.00;101487.56;6120861;23;20064;-93
2022/08/05 06:38:52;;;;;;;13.77;6.03;;;;;;;18.00;100.00;101488.56;6184230;23;20024;-94
2022/08/05 06:41:21;;;;;;;11.63;5.75;;;;;;;18.07;100.00;101471.94;6090248;23;20407;-94
2022/08/05 06:43:47;;;;;;;11.77;5.40;;;;;;;18.17;100.00;101485.34;6092645;23;20070;-94
2022/08/05 06:47:05;;;;;;;13.27;5.88;;;;;;;18.53;100.00;101502.22;6063393;23;20011;-94
2022/08/05 06:56:18;;;;;;;13.07;5.20;;;;;;;19.25;96.99;101516.50;6236581;22;20309;-94
2022/08/05 07:02:46;;;;;;;10.30;5.20;;;;;;;19.34;96.80;101523.66;6244305;23;20019;-94
2022/08/05 07:05:37;;;;;;;8.82;4.93;;;;;;;19.27;96.41;101533.28;6243161;22;20004;-93
2022/08/05 07:08:40;;;;;;;10.82;5.00;;;;;;;19.21;95.59;101532.59;6244266;23;20026;-93
2022/08/05 07:11:15;;;;;;;11.55;5.03;;;;;;;19.22;95.62;101524.13;6217151;23;20092;-94
2022/08/05 07:19:43;;;;;;;13.40;4.97;;;;;;;19.96;94.40;101525.19;6243926;23;20065;-93
2022/08/05 07:22:11;;;;;;;11.30;4.60;;;;;;;20.13;90.24;101524.53;6243970;23;20004;-93
2022/08/05 07:31:21;;;;;;;14.10;4.85;;;;;;;20.05;87.80;101544.31;6243721;23;20467;-93
2022/08/05 07:34:07;;;;;;;9.73;4.83;;;;;;;20.32;89.47;101549.97;6243716;22;20000;-94
2022/08/05 07:36:36;;;;;;;7.15;4.22;;;;;;;20.31;86.15;101541.00;6243911;23;20004;-94
2022/08/05 07:39:35;;;;;;;10.23;4.20;;;;;;;20.46;87.01;101563.53;6243915;23;20001;-94
2022/08/05 07:42:47;;;;;;;10.30;4.00;;;;;;;20.60;86.46;101577.91;6244456;23;20042;-92
2022/08/05 07:45:36;;;;;;;10.35;4.20;;;;;;;20.40;85.65;101577.28;6239521;22;20028;-93
2022/08/05 07:48:37;;;;;;;7.85;4.03;;;;;;;20.35;86.36;101574.66;6244639;23;20079;-93
2022/08/05 07:51:14;;;;;;;9.75;3.35;;;;;;;20.47;84.05;101565.13;6244376;23;20349;-94
2022/08/05 07:56:41;;;;;;;10.68;3.70;;;;;;;20.82;82.51;101570.88;6237135;22;20020;-94
2022/08/05 07:59:09;;;;;;;8.20;2.77;;;;;;;20.86;77.78;101580.88;6121419;23;20010;-93
2022/08/05 08:01:42;;;;;;;6.30;3.33;;;;;;;21.03;78.95;101569.28;6121541;23;20274;-93
2022/08/05 08:04:24;;;;;;;;;;;;;;;;;;;;;
2022/08/05 08:16:15;;;;;;;6.55;2.60;;;;;;;20.76;73.37;101580.31;6242610;22;20074;-94
2022/08/05 08:22:09;;;;;;;5.55;2.08;;;;;;;20.98;74.13;101583.03;6244724;23;20022;-93
2022/08/05 08:34:42;;;;;;;6.18;2.30;;;;;;;22.09;68.76;101611.44;6270615;22;20059;-93
2022/08/05 08:40:48;;;;;;;4.75;2.28;;;;;;;21.83;68.26;101622.28;6273520;22;20011;-93
2022/08/05 08:59:21;;;;;;;7.43;2.50;;;;;;;22.60;66.95;101653.97;6189690;23;20365;-93
2022/08/05 09:02:16;;;;;;;7.87;2.63;;;;;;;22.64;64.65;101658.47;6186610;23;20279;-92
2022/08/05 09:26:49;;;;;;;4.70;2.10;;;;;;;23.55;60.45;101679.63;6234676;23;20051;-92
2022/08/05 09:29:18;;;;;;;4.50;2.10;;;;;;;23.89;59.76;101674.34;6232739;23;20008;-92
2022/08/05 09:32:50;;;;;;;4.30;2.10;;;;;;;23.94;58.05;101693.31;6220683;23;20561;-93
2022/08/05 09:39:23;;;;;;;4.03;2.22;;;;;;;22.77;62.87;101688.66;6218653;23;20024;-92
2022/08/05 09:42:14;;;;;;;4.22;1.90;;;;;;;22.29;64.35;101679.41;6203043;23;20016;-93
2022/08/05 09:45:13;;;;;;;6.85;2.10;;;;;;;21.92;65.31;101695.97;6226204;23;20032;-93
2022/08/05 09:47:48;;;;;;;7.35;1.77;;;;;;;21.55;67.20;101678.91;6222059;23;20000;-92
2022/08/05 09:50:29;;;;;;;;;;;;;;;;;;;;;
2022/08/05 10:22:10;;;;;;;7.47;1.60;;;;;;;24.29;51.38;101701.38;6220433;23;20016;-93
2022/08/05 10:28:43;;;;;;;2.47;1.20;;;;;;;24.84;47.33;101715.22;6247069;23;20246;-92
2022/08/05 10:35:07;;;;;;;1.48;1.10;;;;;;;25.26;47.71;101725.38;6247052;22;20062;-91
2022/08/05 10:41:41;;;;;;;2.97;1.00;;;;;;;25.57;42.59;101715.06;6250572;23;20091;-92
2022/08/05 10:47:19;;;;;;;5.18;1.08;;;;;;;26.03;39.96;101721.34;6209934;22;20020;-91
2022/08/05 10:50:12;;;;;;;2.25;0.80;;;;;;;26.23;41.12;101727.88;6262992;23;20286;-91
2022/08/05 10:55:06;;;;;;;2.97;0.77;;;;;;;25.97;38.79;101715.28;6236039;22;20012;-93
2022/08/05 10:57:34;;;;;;;1.30;0.90;;;;;;;25.69;39.00;101737.06;6248442;23;20250;-92
2022/08/05 11:00:06;;;;;;;2.58;0.93;;;;;;;25.39;38.42;101734.44;6247610;23;20008;-93
2022/08/05 11:02:31;;;;;;;1.90;0.90;;;;;;;24.96;38.69;101741.91;6244345;22;20003;-92
2022/08/05 11:08:18;;;;;;;2.70;0.80;;;;;;;25.17;37.53;101730.13;6244938;23;20023;-93
2022/08/05 11:24:08;;;;;;;3.67;1.03;;;;;;;25.77;37.17;101752.63;6242723;22;20014;-93
2022/08/05 11:26:42;;;;;;;2.60;0.80;;;;;;;25.75;36.52;101756.88;6244358;23;20274;-92
2022/08/05 11:29:50;;;;;;;0.98;0.85;;;;;;;25.86;36.60;101749.78;6244520;23;20015;-92
2022/08/05 11:38:13;;;;;;;1.98;0.80;;;;;;;25.38;35.33;101757.53;6122050;23;20020;-92
2022/08/05 11:49:36;;;;;;;1.35;0.80;;;;;;;24.92;38.34;101763.72;6239807;22;20024;-93
2022/08/05 11:52:07;;;;;;;3.33;1.20;;;;;;;24.96;38.34;101763.84;6244601;23;20000;-92
2022/08/05 11:57:30;;;;;;;2.85;1.08;;;;;;;24.90;39.86;101765.97;6212630;23;20166;-91
2022/08/05 12:06:50;;;;;;;5.25;1.45;;;;;;;25.17;41.12;101813.22;6209113;23;20039;-92
2022/08/05 12:09:24;;;;;;;2.75;1.40;;;;;;;25.10;41.41;101802.78;6212997;23;20092;-93
2022/08/05 12:11:50;;;;;;;3.30;0.90;;;;;;;24.82;39.98;101809.88;6186705;23;20043;-93
2022/08/05 12:14:41;;;;;;;3.58;1.30;;;;;;;24.55;41.23;101812.75;6214656;23;20000;-92
2022/08/05 12:21:07;;;;;;;2.83;1.10;;;;;;;24.84;41.52;101838.56;6092219;23;20341;-92
2022/08/05 12:27:07;;;;;;;1.85;0.90;;;;;;;25.18;39.49;101836.75;6205019;23;20074;-93
2022/08/05 12:30:05;;;;;;;3.20;0.98;;;;;;;25.47;39.04;101843.31;6217694;23;20004;-92
2022/08/05 12:39:51;;;;;;;4.35;0.82;;;;;;;25.25;35.46;101852.66;6120473;23;20020;-94
2022/08/05 12:44:51;;;;;;;4.82;0.90;;;;;;;24.94;34.94;101853.81;6241905;22;20020;-92
2022/08/05 12:48:03;;;;;;;1.40;0.73;;;;;;;25.15;35.17;101874.97;6240482;22;20014;-93
2022/08/05 12:51:13;;;;;;;2.30;0.80;;;;;;;25.12;35.30;101870.97;6157999;23;20016;-93
2022/08/05 13:04:43;;;;;;;1.58;0.80;;;;;;;24.97;36.50;101882.53;6241508;22;20017;-95
2022/08/05 13:08:00;;;;;;;5.93;0.87;;;;;;;25.14;35.66;101887.91;6245936;23;20027;-95
2022/08/05 13:10:46;;;;;;;4.83;0.90;;;;;;;25.41;37.07;101883.03;6159715;23;20312;-94
2022/08/05 13:13:39;;;;;;;1.80;0.80;;;;;;;25.76;34.25;101896.47;6155784;23;20005;-94
2022/08/05 13:16:48;;;;;;;1.95;0.90;;;;;;;25.61;33.20;101903.41;6159230;23;20006;-94
2022/08/05 13:41:24;;;;;;;3.05;0.93;;;;;;;24.89;31.44;101906.91;5104652;27;1212380;-83
2022/08/05 13:43:49;;;;;;;3.17;1.20;;;;;;;25.05;31.51;101909.88;5128765;28;20035;-83
2022/08/05 13:46:15;;;;;;;1.50;1.00;;;;;;;25.28;31.63;101911.53;5128468;28;20043;-83
2022/08/05 13:48:41;;;;;;;1.17;1.00;;;;;;;25.43;31.89;101910.97;5128884;28;20051;-83
2022/08/05 13:51:08;;;;;;;2.80;1.00;;;;;;;25.27;31.03;101910.72;5127977;28;20725;-83
2022/08/05 13:53:34;;;;;;;3.38;0.90;;;;;;;25.48;32.76;101915.44;5128744;28;20095;-83
2022/08/05 13:56:00;;;;;;;3.72;1.13;;;;;;;25.52;31.90;101916.38;5128663;28;20055;-83
2022/08/05 13:58:25;;;;;;;3.50;0.88;;;;;;;25.61;30.88;101921.81;5128582;28;20053;-83
2022/08/05 14:00:50;;;;;;;3.27;1.13;;;;;;;25.94;32.20;101916.34;5127378;28;20106;-83
2022/08/05 14:03:19;;;;;;;1.70;0.90;;;;;;;25.79;31.32;101908.75;5128803;28;20027;-83
2022/08/05 14:05:47;;;;;;;1.40;0.80;;;;;;;25.30;31.99;101914.72;5128583;28;20409;-83
2022/08/05 14:08:13;;;;;;;3.28;1.00;;;;;;;24.83;32.45;101924.69;5128359;28;20031;-83
2022/08/05 14:10:39;;;;;;;3.88;0.77;;;;;;;24.41;33.69;101925.25;5127522;28;20035;-83
2022/08/05 14:13:08;;;;;;;1.77;0.90;;;;;;;24.02;35.09;101929.81;5129087;28;20054;-83
2022/08/05 14:15:34;;;;;;;3.08;0.90;;;;;;;24.02;36.10;101927.91;5127839;28;20084;-83
2022/08/05 14:18:00;;;;;;;3.33;1.05;;;;;;;24.28;34.79;101931.72;5128244;28;20024;-83
2022/08/05 14:20:29;;;;;;;1.60;0.90;;;;;;;24.21;35.97;101945.91;5127491;28;20062;-83
2022/08/05 14:22:56;;;;;;;6.67;1.10;;;;;;;23.95;36.37;101935.75;5128136;28;20023;-83
2022/08/05 14:25:21;;;;;;;3.67;1.17;;;;;;;24.01;37.01;101939.97;5128088;28;20280;-83
2022/08/05 14:27:48;;;;;;;1.13;0.90;;;;;;;24.24;36.00;101950.75;5128253;28;20015;-83
2022/08/05 14:30:14;;;;;;;3.38;1.08;;;;;;;24.53;36.22;101941.00;5126825;28;20034;-83
2022/08/05 14:32:39;;;;;;;1.87;0.80;;;;;;;24.75;34.86;101950.16;5109469;28;20031;-84
2022/08/05 14:35:06;;;;;;;3.50;0.90;;;;;;;24.58;34.67;101946.31;5128120;28;20133;-82
2022/08/05 14:37:32;;;;;;;1.50;0.97;;;;;;;25.05;34.65;101941.97;5127852;28;20115;-83
2022/08/05 14:39:57;;;;;;;0.98;0.70;;;;;;;25.59;33.79;101943.28;5109191;28;20114;-82
2022/08/05 14:42:22;;;;;;;3.73;1.00;;;;;;;25.83;33.19;101942.63;5114346;28;20109;-83
2022/08/05 14:44:48;;;;;;;2.87;0.90;;;;;;;26.03;31.93;101948.41;5114400;28;20031;-84
2022/08/05 14:47:13;;;;;;;3.28;1.00;;;;;;;25.64;31.91;101946.66;5113706;28;20020;-82
2022/08/05 14:49:39;;;;;;;3.67;1.10;;;;;;;25.44;33.02;101947.44;5107282;28;20081;-82
2022/08/05 14:52:04;;;;;;;3.53;0.80;;;;;;;25.28;33.62;101956.22;5109596;28;20020;-83
2022/08/05 14:54:30;;;;;;;2.43;0.77;;;;;;;24.90;35.17;101951.56;5111064;28;20497;-83
2022/08/05 14:56:56;;;;;;;3.20;1.17;;;;;;;24.67;36.21;101949.03;5099777;28;20034;-83
2022/08/05 14:59:21;;;;;;;2.67;1.00;;;;;;;24.45;36.63;101950.06;5113624;28;20031;-83
2022/08/05 15:01:46;;;;;;;4.60;1.23;;;;;;;24.73;36.71;101955.16;5113279;28;20038;-84
2022/08/05 15:04:12;;;;;;;2.93;1.00;;;;;;;24.60;35.94;101952.28;5113818;28;20023;-82
2022/08/05 15:06:38;;;;;;;6.60;1.30;;;;;;;24.64;36.30;101941.47;5113635;27;20083;-82
2022/08/05 15:09:03;;;;;;;4.57;1.10;;;;;;;25.00;36.00;101950.41;5113886;28;20026;-82
2022/08/05 15:11:33;;;;;;;1.87;1.00;;;;;;;25.26;36.43;101953.00;5113268;28;20405;-83
2022/08/05 15:13:58;;;;;;;4.28;0.93;;;;;;;25.22;36.52;101950.09;5113422;28;20081;-83
2022/08/05 15:16:23;;;;;;;2.25;1.13;;;;;;;25.03;35.65;101964.25;5113755;28;20020;-83
2022/08/05 15:18:48;;;;;;;2.63;1.00;;;;;;;24.75;36.02;101963.88;5111807;28;20100;-83
2022/08/05 15:21:14;;;;;;;4.70;1.17;;;;;;;24.78;36.08;101961.28;5113380;28;20130;-84
2022/08/05 15:23:39;;;;;;;5.00;1.03;;;;;;;24.91;35.36;101975.09;5113537;28;20028;-83
2022/08/05 15:26:05;;;;;;;3.00;1.10;;;;;;;25.28;34.62;101960.88;5112320;28;20177;-84
2022/08/05 15:28:30;;;;;;;1.38;0.70;;;;;;;25.33;33.80;101957.97;5113198;28;20051;-82
2022/08/05 15:30:56;;;;;;;2.07;1.00;;;;;;;25.21;34.36;101970.44;5112409;28;20042;-83
2022/08/05 15:33:21;;;;;;;4.60;1.10;;;;;;;24.84;35.77;101956.41;5113345;28;20031;-82
2022/08/05 15:35:47;;;;;;;2.00;0.98;;;;;;;24.58;35.69;101964.69;5111829;28;20088;-82
2022/08/05 15:38:12;;;;;;;1.13;0.90;;;;;;;24.70;34.77;101958.53;5113267;28;20047;-82
2022/08/05 15:40:37;;;;;;;2.80;0.90;;;;;;;24.88;34.56;101968.31;5112353;28;20456;-83
2022/08/05 15:43:02;;;;;;;1.43;1.10;;;;;;;24.81;34.72;101965.31;5112957;28;20043;-82
2022/08/05 15:45:30;;;;;;;4.47;1.07;;;;;;;24.64;35.54;101966.13;5113184;28;20108;-82
2022/08/05 15:47:56;;;;;;;1.73;1.13;;;;;;;24.41;34.75;101962.81;5112732;28;20024;-82
2022/08/05 15:50:21;;;;;;;3.70;1.10;;;;;;;24.44;36.23;101960.22;5112372;28;20028;-82
2022/08/05 15:52:46;;;;;;;4.60;1.20;;;;;;;24.54;34.83;101964.53;5111791;28;20024;-82
2022/08/05 15:55:12;;;;;;;6.37;1.03;;;;;;;25.10;34.66;101972.78;5112757;28;20031;-82
2022/08/05 15:57:39;;;;;;;2.10;1.50;;;;;;;25.53;34.58;101984.66;5112201;28;20377;-82
2022/08/05 16:00:06;;;;;;;2.60;1.10;;;;;;;25.61;34.91;101979.44;5111848;28;20034;-82
2022/08/05 16:02:31;;;;;;;2.67;1.10;;;;;;;25.45;34.42;101988.25;5112433;28;20386;-82
2022/08/05 16:04:57;;;;;;;3.08;1.10;;;;;;;25.33;34.90;101993.63;5112368;28;20047;-82
2022/08/05 16:07:22;;;;;;;2.50;1.10;;;;;;;24.91;35.27;101992.34;5112589;28;20020;-82
2022/08/05 16:09:48;;;;;;;2.77;1.20;;;;;;;24.69;36.33;101987.06;5111952;28;20397;-83
2022/08/05 16:12:14;;;;;;;4.88;1.10;;;;;;;24.76;36.51;101996.41;5112311;28;20031;-83
2022/08/05 16:14:40;;;;;;;2.80;1.17;;;;;;;24.85;36.75;101993.66;5112472;28;20024;-82
2022/08/05 16:17:06;;;;;;;3.50;1.08;;;;;;;24.99;37.05;102000.88;5112586;28;20078;-82
2022/08/05 16:19:31;;;;;;;2.17;1.05;;;;;;;24.83;36.56;102003.34;5112285;28;20147;-82
2022/08/05 16:21:56;;;;;;;3.73;0.93;;;;;;;24.55;36.88;102007.25;5112043;28;20434;-82
2022/08/05 16:24:22;;;;;;;3.07;1.30;;;;;;;23.81;37.53;102004.34;5111896;28;20099;-82
2022/08/05 16:26:57;;;;;;;5.30;1.10;;;;;;;23.17;39.29;102007.53;5112085;28;20027;-82
2022/08/05 16:29:23;;;;;;;1.23;0.95;;;;;;;23.02;39.97;102003.28;5111968;28;20020;-82
2022/08/05 16:31:49;;;;;;;6.70;0.95;;;;;;;23.51;39.76;102008.78;5111416;28;20032;-82
2022/08/05 16:34:16;;;;;;;2.67;1.10;;;;;;;23.65;39.24;102019.59;5112072;28;20072;-82
2022/08/05 16:36:41;;;;;;;3.20;1.02;;;;;;;23.44;39.27;102023.72;5112009;28;20110;-83
2022/08/05 16:39:08;;;;;;;4.43;1.00;;;;;;;23.54;39.96;102035.53;5111935;28;20120;-82
2022/08/05 16:41:34;;;;;;;3.77;1.10;;;;;;;23.46;40.57;102028.91;5111235;28;20289;-82
2022/08/05 16:43:59;;;;;;;3.05;0.80;;;;;;;23.09;40.65;102031.78;5111553;28;20024;-82
2022/08/05 16:46:25;;;;;;;3.63;1.07;;;;;;;22.76;41.63;102040.28;5111923;28;20100;-83
2022/08/05 16:48:53;;;;;;;2.07;1.13;;;;;;;22.58;42.07;102030.34;5111696;28;20273;-83
2022/08/05 16:51:18;;;;;;;2.03;0.90;;;;;;;22.42;42.13;102036.19;5111375;28;20053;-83
2022/08/05 16:53:44;;;;;;;6.30;0.90;;;;;;;22.57;42.05;102036.94;5111151;28;20644;-83
2022/08/05 16:56:09;;;;;;;3.07;0.90;;;;;;;23.00;41.78;102044.59;5111818;28;20038;-83
2022/08/05 16:58:34;;;;;;;4.37;0.90;;;;;;;23.27;40.91;102042.81;5111467;28;20036;-82
2022/08/05 17:00:59;;;;;;;5.57;0.90;;;;;;;23.46;40.29;102048.03;5111086;28;20051;-82
2022/08/05 17:03:25;;;;;;;4.03;1.00;;;;;;;23.13;40.29;102049.16;5111196;28;20034;-83
2022/08/05 17:05:50;;;;;;;1.88;0.95;;;;;;;22.84;40.99;102053.16;5102197;28;20054;-83
2022/08/05 17:08:15;;;;;;;1.67;1.00;;;;;;;22.40;41.96;102062.97;5072895;28;20081;-81
2022/08/05 17:10:41;;;;;;;2.43;1.10;;;;;;;22.04;43.10;102069.22;5090255;28;20024;-82
2022/08/05 17:13:09;;;;;;;5.47;1.03;;;;;;;21.89;44.38;102063.00;5091224;28;20028;-82
2022/08/05 17:15:35;;;;;;;6.63;1.20;;;;;;;21.70;44.58;102076.72;5090900;28;20035;-82
2022/08/05 17:18:01;;;;;;;2.88;1.00;;;;;;;21.33;44.80;102068.41;5091044;28;20061;-82
2022/08/05 17:20:26;;;;;;;3.40;1.00;;;;;;;20.84;45.72;102067.09;5090271;28;20024;-82
2022/08/05 17:22:52;;;;;;;5.57;1.20;;;;;;;20.73;46.67;102080.84;5090857;28;20089;-82
2022/08/05 17:25:18;;;;;;;3.40;1.00;;;;;;;20.56;46.60;102077.84;5090601;28;20031;-82
2022/08/05 17:27:44;;;;;;;3.22;0.90;;;;;;;20.53;46.39;102083.88;5090963;28;20022;-84
2022/08/05 17:30:09;;;;;;;3.57;1.00;;;;;;;20.53;46.59;102090.16;5089895;28;20028;-82
2022/08/05 17:32:35;;;;;;;4.25;1.00;;;;;;;20.38;47.39;102093.91;5089513;28;20016;-82
2022/08/05 17:35:00;;;;;;;2.90;1.10;;;;;;;20.25;47.15;102094.63;5090634;28;20085;-83
2022/08/05 17:37:26;;;;;;;6.50;1.20;;;;;;;19.97;47.98;102094.44;5090929;28;20085;-82
2022/08/05 17:39:51;;;;;;;3.23;0.90;;;;;;;19.75;48.50;102098.47;5090138;28;20709;-82
2022/08/05 17:42:16;;;;;;;2.73;1.03;;;;;;;19.76;49.20;102105.50;5072513;28;20106;-83
2022/08/05 17:44:41;;;;;;;3.70;0.80;;;;;;;19.65;49.08;102112.19;5090527;28;20594;-82
2022/08/05 17:47:07;;;;;;;3.20;1.10;;;;;;;19.62;49.25;102110.03;5090741;28;20020;-83
2022/08/05 17:49:32;;;;;;;4.67;0.80;;;;;;;19.51;48.75;102110.16;5090490;28;20024;-82
2022/08/05 17:51:58;;;;;;;2.60;0.83;;;;;;;19.35;48.44;102106.75;5090292;28;20498;-82
2022/08/05 17:54:23;;;;;;;3.07;0.80;;;;;;;19.25;48.92;102111.47;5090497;28;20756;-82
2022/08/05 17:56:49;;;;;;;2.03;0.90;;;;;;;19.22;48.82;102118.31;5090698;28;20066;-82
2022/08/05 17:59:15;;;;;;;1.98;0.80;;;;;;;19.13;49.47;102111.84;5090805;28;20051;-82
2022/08/05 18:01:40;;;;;;;2.47;0.90;;;;;;;19.11;49.13;102117.56;5090032;28;20058;-82
2022/08/05 18:04:05;;;;;;;4.03;1.00;;;;;;;18.96;49.55;102131.28;5090489;28;20032;-82
2022/08/05 18:06:30;;;;;;;2.90;1.10;;;;;;;18.85;49.54;102135.94;5090085;28;20016;-82
2022/08/05 18:08:56;;;;;;;5.07;0.93;;;;;;;18.72;50.22;102127.31;5089859;28;20020;-82
2022/08/05 18:11:21;;;;;;;2.80;0.80;;;;;;;18.69;49.74;102129.78;5090183;28;20494;-82
2022/08/05 18:13:46;;;;;;;5.57;0.97;;;;;;;18.64;50.09;102137.97;5072344;28;20455;-82
2022/08/05 18:16:13;;;;;;;5.83;1.10;;;;;;;18.61;50.13;102147.50;5091630;28;20035;-82
2022/08/05 18:18:38;;;;;;;4.50;1.30;;;;;;;18.65;50.24;102148.56;5093864;28;20278;-82
2022/08/05 18:21:07;;;;;;;5.72;1.13;;;;;;;18.45;50.30;102160.31;5093656;28;20402;-82
2022/08/05 18:23:33;;;;;;;4.75;1.00;;;;;;;18.38;50.76;102162.53;5094006;28;20024;-82
2022/08/05 18:25:59;;;;;;;3.17;1.03;;;;;;;18.25;51.82;102164.78;5093577;28;20050;-82
2022/08/05 18:28:24;;;;;;;5.05;1.30;;;;;;;18.24;51.26;102168.56;5093875;28;20024;-82
2022/08/05 18:30:52;;;;;;;3.43;1.20;;;;;;;18.18;50.58;102172.38;5093223;28;20032;-82
2022/08/05 18:33:21;;;;;;;6.20;1.33;;;;;;;18.08;50.50;102167.81;5093708;28;20024;-82
2022/08/05 18:35:46;;;;;;;4.38;1.30;;;;;;;18.01;51.76;102173.53;5093823;28;20543;-82
2022/08/05 18:38:12;;;;;;;8.63;1.20;;;;;;;17.97;50.93;102183.25;5093315;28;20107;-82
2022/08/05 18:40:37;;;;;;;6.85;1.20;;;;;;;17.88;51.72;102184.09;5093203;28;20032;-82
2022/08/05 18:43:03;;;;;;;2.53;1.20;;;;;;;17.80;51.77;102175.41;5093894;28;20058;-82
2022/08/05 18:45:29;;;;;;;5.30;0.90;;;;;;;17.77;51.90;102183.28;5093558;28;20489;-82
2022/08/05 18:47:54;;;;;;;6.40;1.47;;;;;;;17.63;52.03;102194.72;5093467;28;20016;-82
2022/08/05 18:53:03;;;;;;;6.90;1.20;;;;;;;17.46;52.85;102188.75;5093998;28;20109;-81
2022/08/05 18:55:28;;;;;;;5.53;1.10;;;;;;;17.34;52.86;102187.13;5093557;28;20051;-81
2022/08/05 18:57:54;;;;;;;6.70;1.17;;;;;;;17.28;53.20;102185.50;5093207;28;20020;-82
2022/08/05 19:00:21;;;;;;;4.90;0.77;;;;;;;17.14;53.03;102184.41;5092755;28;20024;-81
2022/08/05 19:02:47;;;;;;;4.80;0.77;;;;;;;17.08;53.80;102192.53;5093542;28;20024;-81
2022/08/05 19:05:12;;;;;;;4.00;1.10;;;;;;;16.96;53.65;102197.38;5093262;28;20043;-81
2022/08/05 19:07:37;;;;;;;7.23;1.13;;;;;;;16.80;54.65;102201.91;5096149;28;20028;-82
2022/08/05 19:10:06;;;;;;;6.10;0.90;;;;;;;16.84;54.70;102210.31;5092918;28;20028;-82
2022/08/05 19:12:32;;;;;;;7.15;1.10;;;;;;;16.71;54.82;102207.03;5092920;28;20032;-82
2022/08/05 19:14:58;;;;;;;4.87;0.80;;;;;;;16.63;55.12;102212.94;5093222;28;20012;-82
2022/08/05 19:17:24;;;;;;;4.97;1.20;;;;;;;16.51;56.06;102221.31;5091478;28;20284;-82
2022/08/05 19:19:49;;;;;;;7.80;1.38;;;;;;;16.46;56.31;102224.78;5092447;28;20024;-82
2022/08/05 19:22:15;;;;;;;4.43;0.93;;;;;;;16.41;56.83;102227.47;5093072;28;20024;-83
2022/08/05 19:24:40;;;;;;;2.80;1.15;;;;;;;16.26;56.80;102230.09;5093067;28;20104;-82
2022/08/05 19:27:07;;;;;;;5.30;0.83;;;;;;;16.21;57.68;102230.88;5074383;28;20036;-82
2022/08/05 19:29:33;;;;;;;7.10;1.10;;;;;;;16.22;57.56;102237.13;5092663;28;20024;-82
2022/08/05 19:31:58;;;;;;;6.53;1.00;;;;;;;16.17;57.53;102235.16;5092147;28;20032;-82
2022/08/05 19:34:23;;;;;;;4.30;0.83;;;;;;;16.06;58.33;102245.13;5092780;28;20353;-82
2022/08/05 19:36:49;;;;;;;6.27;1.50;;;;;;;16.02;58.89;102244.03;5092442;28;20031;-82
2022/08/05 19:39:14;;;;;;;9.48;1.83;;;;;;;15.86;59.13;102243.91;5092774;28;20027;-82
2022/08/05 19:41:40;;;;;;;6.00;1.43;;;;;;;15.84;59.24;102245.19;5091972;28;20032;-82
2022/08/05 19:44:05;;;;;;;4.47;1.17;;;;;;;15.78;60.04;102251.66;5092922;28;20028;-82
2022/08/05 19:46:32;;;;;;;4.00;1.00;;;;;;;15.68;60.46;102249.69;5092235;28;20020;-82
2022/08/05 19:49:01;;;;;;;8.70;1.15;;;;;;;15.59;61.26;102262.84;5092737;28;20119;-83
2022/08/05 19:51:27;;;;;;;7.55;1.38;;;;;;;15.56;61.60;102263.34;5092025;28;20020;-82
2022/08/05 19:53:53;;;;;;;8.45;1.30;;;;;;;15.42;62.33;102262.94;5092603;28;20077;-82
2022/08/05 19:56:21;;;;;;;6.47;1.15;;;;;;;15.37;61.72;102263.72;5092485;28;20036;-82
2022/08/05 19:58:47;;;;;;;9.40;1.30;;;;;;;15.29;62.54;102269.56;5092640;28;20035;-82
2022/08/05 20:01:12;;;;;;;5.13;1.00;;;;;;;15.22;62.83;102271.69;5091404;28;20270;-82
2022/08/05 20:03:37;;;;;;;7.10;1.20;;;;;;;15.15;63.18;102263.78;5092244;28;20112;-82
2022/08/05 20:06:02;;;;;;;13.63;1.30;;;;;;;15.09;63.68;102270.97;5091682;28;20399;-82
2022/08/05 20:08:29;;;;;;;7.93;1.83;;;;;;;15.10;63.57;102277.22;5092094;28;20034;-82
2022/08/05 20:10:56;;;;;;;4.65;1.23;;;;;;;15.08;63.32;102269.34;5091661;28;20040;-82
2022/08/05 20:13:29;;;;;;;10.05;1.80;;;;;;;15.02;64.30;102278.47;5091821;28;20097;-82
2022/08/05 20:15:56;;;;;;;2.25;1.10;;;;;;;14.95;65.09;102286.78;5092193;28;20047;-82
2022/08/05 20:18:22;;;;;;;6.93;1.35;;;;;;;14.94;64.69;102290.53;5092276;28;20027;-82
2022/08/05 20:20:47;;;;;;;4.93;1.23;;;;;;;14.83;65.29;102284.19;5091790;28;20032;-82